Share

Wendover, UT

Wendover (KENV) Elev 4239 ft | 40.72 °N, 114.03 °W | Change Station

Current weather conditions updated 10 minutes ago

Overcast
Overcast
57 °F
Feels Like 57 °F
N
7
Wind Variable Wind from ENE
Sunrise 6:52 AM
Sunset 8:18 PM
Moon Waning Gibbous

Tomorrow is forecast to be Warmer than today.

Pressure 29.95 in
Visibility 10.0 miles
Clouds Scattered Clouds 9500 ft
Overcast 12000 ft
Dew Point 41 °F
Humidity 55%
Rainfall 0.00 in
Snow Depth Not available.
UV 0 out of 16
Pollen 9.60 out of 12
PM2.5 Good
Flu Activity Local Activity
METAR KENV 190455Z 07006KT 10SM SCT095 OVC120 14/05 A2995 RMK AO1

More Conditions Fewer Conditions

Pressure 29.95 in
Visibility 10.0 miles
Clouds Scattered Clouds 9500 ft
Overcast 12000 ft
Dew Point 41 °F
Humidity 55%
Rainfall 0.00 in
Snow Depth Not available.
UV 0 out of 16
Pollen 9.60 out of 12
PM2.5 Good
Flu Activity Local Activity
METAR KENV 190455Z 07006KT 10SM SCT095 OVC120 14/05 A2995 RMK AO1

More Conditions Fewer Conditions

10-Day Weather Forecast

Almanac

Astronomy

Apr. 18, 2014 Rise Set
Actual Time 6:52 AM MDT 8:18 PM MDT
Civil Twilight 6:24 AM MDT 8:47 PM MDT
Nautical Twilight 5:49 AM MDT 9:22 PM MDT
Astronomical Twilight 5:13 AM MDT 9:58 PM MDT
Moon No Moon Rise 9:17 AM MDT (4/18)
Length of Visible Light 14h 23m
Length of Day
13h 26m
Tomorrow will be 2m 33s longer.
Waning Gibbous, 83% of the Moon is Illuminated
Apr 19
Waning Gibbous
Apr 22
Last Quarter
Apr 29
New
May 6
First Quarter
May 14
Full

Yesterday's Extremes

State Highs State Lows

Community

  • Sunset Silhouettes
    Sunset Silhouettes
  • FL sunset Perico Isle
    FL sunset Perico Isle
  • Cloudy spring view
    Cloudy spring view
  • Old barn
    Old barn
  • What's for Lunch?
    What's for Lunch?

WunderPhotos

Upload Photos

1,702,645 photos uploaded!

WunderBlogs® & News

Nearby

Air Quality

  Air Quality AQ Index Pollutant
Yesterday Good
PM2.5
Current Good
PM2.5

Snow Depth

Station Depth Elevation
Mining Fork 31 in 8000 ft
Rocky Basin-Settlement 37 in 8900 ft
Dry Fork 21 in 7160 ft
Vernon Creek 2 in 7500 ft
Farmington Lower 17 in 6779 ft

Coastal Water Temperatures

Place Temperature
No Stations Reporting

Earthquake Activity

City Distance Mag. Time & Date
No recent earthquake activity has been reported nearby.
Minimum magnitude displayed is 2.5.

Nearby Weather Stations

Station Location Temp. Dew Point Humidity Wind Precip. Elev Updated Type
MesoWest OLA , Wendover, NV 59 °F - - North  at  - 0.00 in / hr 4408 ft 6:25 PM PDT MADIS
MesoWest SHAFTR , Oasis, NV 57 °F - - North  at  - 0.00 in / hr 5678 ft 7:15 PM PDT MADIS

Show More Stations Show Fewer Stations

What do you think?

We're not finished. Please let us know what you like, what you don't like, and what you are still missing.